Holbrook, Arizona
Current Conditions -  °F | °C
As of 1:56 PM on Tuesday 21 Oct 2014 (Local Time) from KINW Reporting Station
Clear Clear  
Wind Chill: 74°   Ceiling: Unl
Heat Index: 74°   Visibility: 10mi
Dew Point: 42°   Wind: 8mph
Humidity: 32%   Direction: 140°SE
Pressure: 30"   Gusts: NA
Location:  34.9°N, 110.16°W
Report Text: KINW 212056Z AUTO 14007KT 110V170 10SM CLR 23/06 A3000 RMK AO2 SLP110 T02330056 58028
Loading
Personal Weather Stations






























Interactive Weather Map
Tropical Storm Tracking
New forecast layout! Learn more

10-Day Weather Forecast

Advertisements
Track Severe Weather on mobile